sensor_id;sensor_type;location;lat;lon;timestamp;P1;durP1;ratioP1;P2;durP2;ratioP2
75061;SDS011;63641;46.526;24.612;2024-03-23T00:53:13;17.52;;;12.85;;
75061;SDS011;63641;46.526;24.612;2024-03-23T00:55:43;19.65;;;13.40;;
75061;SDS011;63641;46.526;24.612;2024-03-23T00:58:09;20.58;;;13.23;;
75061;SDS011;63641;46.526;24.612;2024-03-23T01:00:35;21.42;;;13.52;;
75061;SDS011;63641;46.526;24.612;2024-03-23T01:03:01;18.73;;;13.95;;
75061;SDS011;63641;46.526;24.612;2024-03-23T01:05:27;19.90;;;14.18;;
75061;SDS011;63641;46.526;24.612;2024-03-23T01:07:53;19.13;;;13.57;;
75061;SDS011;63641;46.526;24.612;2024-03-23T01:10:19;19.83;;;13.98;;
75061;SDS011;63641;46.526;24.612;2024-03-23T01:12:44;17.88;;;13.02;;
75061;SDS011;63641;46.526;24.612;2024-03-23T01:15:10;18.35;;;13.88;;
75061;SDS011;63641;46.526;24.612;2024-03-23T01:17:36;19.35;;;13.35;;
75061;SDS011;63641;46.526;24.612;2024-03-23T01:20:02;19.65;;;13.52;;
75061;SDS011;63641;46.526;24.612;2024-03-23T01:22:29;18.77;;;13.38;;
75061;SDS011;63641;46.526;24.612;2024-03-23T01:24:55;19.92;;;13.98;;
75061;SDS011;63641;46.526;24.612;2024-03-23T01:27:21;18.25;;;13.07;;
75061;SDS011;63641;46.526;24.612;2024-03-23T01:29:46;20.27;;;13.73;;
75061;SDS011;63641;46.526;24.612;2024-03-23T01:32:12;24.27;;;15.18;;
75061;SDS011;63641;46.526;24.612;2024-03-23T01:34:38;18.05;;;13.35;;
75061;SDS011;63641;46.526;24.612;2024-03-23T01:37:04;19.23;;;13.77;;
75061;SDS011;63641;46.526;24.612;2024-03-23T01:39:30;19.10;;;12.85;;
75061;SDS011;63641;46.526;24.612;2024-03-23T01:41:56;19.75;;;13.93;;
75061;SDS011;63641;46.526;24.612;2024-03-23T01:44:22;17.05;;;12.32;;
75061;SDS011;63641;46.526;24.612;2024-03-23T01:46:48;16.50;;;12.75;;
75061;SDS011;63641;46.526;24.612;2024-03-23T01:49:14;18.38;;;13.25;;
75061;SDS011;63641;46.526;24.612;2024-03-23T01:51:39;18.17;;;13.82;;
75061;SDS011;63641;46.526;24.612;2024-03-23T01:54:07;16.75;;;12.70;;
75061;SDS011;63641;46.526;24.612;2024-03-23T01:56:33;16.17;;;12.60;;
75061;SDS011;63641;46.526;24.612;2024-03-23T01:59:05;18.80;;;13.45;;
75061;SDS011;63641;46.526;24.612;2024-03-23T02:01:32;18.45;;;13.60;;
75061;SDS011;63641;46.526;24.612;2024-03-23T02:04:01;19.77;;;13.57;;
75061;SDS011;63641;46.526;24.612;2024-03-23T02:06:27;18.80;;;13.82;;
75061;SDS011;63641;46.526;24.612;2024-03-23T02:08:53;21.50;;;14.50;;
75061;SDS011;63641;46.526;24.612;2024-03-23T02:11:20;20.88;;;15.20;;
75061;SDS011;63641;46.526;24.612;2024-03-23T02:13:46;22.85;;;14.60;;
75061;SDS011;63641;46.526;24.612;2024-03-23T02:16:12;18.98;;;14.10;;
75061;SDS011;63641;46.526;24.612;2024-03-23T02:18:38;20.13;;;13.00;;
75061;SDS011;63641;46.526;24.612;2024-03-23T02:21:04;17.80;;;13.43;;
75061;SDS011;63641;46.526;24.612;2024-03-23T02:23:30;19.40;;;13.90;;
75061;SDS011;63641;46.526;24.612;2024-03-23T02:25:56;20.13;;;13.90;;
75061;SDS011;63641;46.526;24.612;2024-03-23T02:28:22;19.58;;;13.07;;
75061;SDS011;63641;46.526;24.612;2024-03-23T02:30:51;16.42;;;12.05;;
75061;SDS011;63641;46.526;24.612;2024-03-23T02:33:17;18.27;;;13.25;;
75061;SDS011;63641;46.526;24.612;2024-03-23T02:35:44;22.17;;;15.88;;
75061;SDS011;63641;46.526;24.612;2024-03-23T02:38:10;23.25;;;15.68;;
75061;SDS011;63641;46.526;24.612;2024-03-23T02:40:36;18.83;;;14.00;;
75061;SDS011;63641;46.526;24.612;2024-03-23T02:43:02;26.35;;;16.35;;
75061;SDS011;63641;46.526;24.612;2024-03-23T02:45:31;31.00;;;17.33;;
75061;SDS011;63641;46.526;24.612;2024-03-23T02:47:57;26.35;;;18.08;;
75061;SDS011;63641;46.526;24.612;2024-03-23T02:50:23;24.15;;;15.93;;
75061;SDS011;63641;46.526;24.612;2024-03-23T02:52:48;27.17;;;15.80;;
75061;SDS011;63641;46.526;24.612;2024-03-23T02:55:14;24.50;;;16.10;;
75061;SDS011;63641;46.526;24.612;2024-03-23T02:57:40;25.73;;;16.73;;
75061;SDS011;63641;46.526;24.612;2024-03-23T03:00:06;21.85;;;16.25;;
75061;SDS011;63641;46.526;24.612;2024-03-23T03:02:33;24.15;;;15.95;;
75061;SDS011;63641;46.526;24.612;2024-03-23T03:04:59;20.90;;;14.95;;
75061;SDS011;63641;46.526;24.612;2024-03-23T03:07:25;20.42;;;14.40;;
75061;SDS011;63641;46.526;24.612;2024-03-23T03:09:51;24.90;;;15.48;;
75061;SDS011;63641;46.526;24.612;2024-03-23T03:12:17;24.88;;;15.52;;
75061;SDS011;63641;46.526;24.612;2024-03-23T03:14:43;46.40;;;16.58;;
75061;SDS011;63641;46.526;24.612;2024-03-23T03:17:08;22.20;;;15.48;;
75061;SDS011;63641;46.526;24.612;2024-03-23T03:19:34;21.48;;;15.18;;
75061;SDS011;63641;46.526;24.612;2024-03-23T03:22:00;22.08;;;14.52;;
75061;SDS011;63641;46.526;24.612;2024-03-23T03:24:26;21.20;;;13.68;;
75061;SDS011;63641;46.526;24.612;2024-03-23T03:26:52;20.00;;;13.40;;
75061;SDS011;63641;46.526;24.612;2024-03-23T03:29:17;16.60;;;12.98;;
75061;SDS011;63641;46.526;24.612;2024-03-23T03:31:43;19.08;;;13.48;;
75061;SDS011;63641;46.526;24.612;2024-03-23T03:34:09;21.73;;;13.63;;
75061;SDS011;63641;46.526;24.612;2024-03-23T03:36:35;18.10;;;13.00;;
75061;SDS011;63641;46.526;24.612;2024-03-23T03:39:01;19.45;;;13.30;;
75061;SDS011;63641;46.526;24.612;2024-03-23T03:41:28;20.40;;;13.63;;
75061;SDS011;63641;46.526;24.612;2024-03-23T03:43:54;19.30;;;12.85;;
75061;SDS011;63641;46.526;24.612;2024-03-23T03:46:20;17.48;;;13.13;;
75061;SDS011;63641;46.526;24.612;2024-03-23T03:48:46;18.58;;;13.90;;
75061;SDS011;63641;46.526;24.612;2024-03-23T03:51:13;19.05;;;12.90;;
75061;SDS011;63641;46.526;24.612;2024-03-23T03:53:39;19.80;;;13.25;;
75061;SDS011;63641;46.526;24.612;2024-03-23T03:56:05;19.60;;;13.50;;
75061;SDS011;63641;46.526;24.612;2024-03-23T03:58:32;20.05;;;13.75;;
75061;SDS011;63641;46.526;24.612;2024-03-23T04:00:58;23.50;;;12.98;;
75061;SDS011;63641;46.526;24.612;2024-03-23T04:03:23;17.77;;;13.02;;
75061;SDS011;63641;46.526;24.612;2024-03-23T04:05:53;17.92;;;12.80;;
75061;SDS011;63641;46.526;24.612;2024-03-23T04:08:20;19.55;;;12.63;;
75061;SDS011;63641;46.526;24.612;2024-03-23T04:10:46;18.90;;;13.27;;
75061;SDS011;63641;46.526;24.612;2024-03-23T04:13:12;17.45;;;13.80;;
75061;SDS011;63641;46.526;24.612;2024-03-23T04:15:39;18.80;;;12.65;;
75061;SDS011;63641;46.526;24.612;2024-03-23T04:18:05;22.55;;;13.50;;
75061;SDS011;63641;46.526;24.612;2024-03-23T04:20:31;17.98;;;11.60;;
75061;SDS011;63641;46.526;24.612;2024-03-23T04:22:58;18.95;;;13.48;;
75061;SDS011;63641;46.526;24.612;2024-03-23T04:25:26;32.55;;;20.17;;
75061;SDS011;63641;46.526;24.612;2024-03-23T04:27:52;18.05;;;13.70;;
75061;SDS011;63641;46.526;24.612;2024-03-23T04:30:18;19.30;;;13.32;;
75061;SDS011;63641;46.526;24.612;2024-03-23T04:32:44;20.08;;;13.32;;
75061;SDS011;63641;46.526;24.612;2024-03-23T04:35:10;17.58;;;12.30;;
75061;SDS011;63641;46.526;24.612;2024-03-23T04:37:37;20.17;;;12.45;;
75061;SDS011;63641;46.526;24.612;2024-03-23T04:40:06;22.92;;;13.00;;
75061;SDS011;63641;46.526;24.612;2024-03-23T04:42:32;20.65;;;13.77;;
75061;SDS011;63641;46.526;24.612;2024-03-23T04:44:59;18.85;;;12.73;;
75061;SDS011;63641;46.526;24.612;2024-03-23T04:47:25;18.45;;;13.35;;
75061;SDS011;63641;46.526;24.612;2024-03-23T04:49:51;17.52;;;12.65;;
75061;SDS011;63641;46.526;24.612;2024-03-23T04:52:17;19.20;;;13.52;;
75061;SDS011;63641;46.526;24.612;2024-03-23T04:54:43;18.55;;;14.27;;
75061;SDS011;63641;46.526;24.612;2024-03-23T04:57:10;19.67;;;12.70;;
75061;SDS011;63641;46.526;24.612;2024-03-23T04:59:36;17.80;;;13.10;;
75061;SDS011;63641;46.526;24.612;2024-03-23T05:02:02;18.80;;;12.57;;
75061;SDS011;63641;46.526;24.612;2024-03-23T05:04:28;19.80;;;13.48;;
75061;SDS011;63641;46.526;24.612;2024-03-23T05:06:54;20.20;;;14.45;;
75061;SDS011;63641;46.526;24.612;2024-03-23T05:09:20;19.00;;;13.15;;
75061;SDS011;63641;46.526;24.612;2024-03-23T05:11:46;21.15;;;12.57;;
75061;SDS011;63641;46.526;24.612;2024-03-23T05:14:13;18.65;;;13.45;;
75061;SDS011;63641;46.526;24.612;2024-03-23T05:16:39;19.25;;;13.40;;
75061;SDS011;63641;46.526;24.612;2024-03-23T05:19:05;16.38;;;13.65;;
75061;SDS011;63641;46.526;24.612;2024-03-23T05:21:31;18.55;;;13.48;;
75061;SDS011;63641;46.526;24.612;2024-03-23T05:23:56;18.23;;;13.10;;
75061;SDS011;63641;46.526;24.612;2024-03-23T05:26:22;18.75;;;12.63;;
75061;SDS011;63641;46.526;24.612;2024-03-23T05:28:48;20.50;;;12.65;;
75061;SDS011;63641;46.526;24.612;2024-03-23T05:31:24;18.58;;;13.15;;
75061;SDS011;63641;46.526;24.612;2024-03-23T05:33:50;17.23;;;12.38;;
75061;SDS011;63641;46.526;24.612;2024-03-23T05:36:17;17.92;;;13.25;;
75061;SDS011;63641;46.526;24.612;2024-03-23T05:38:42;19.75;;;13.75;;
75061;SDS011;63641;46.526;24.612;2024-03-23T05:41:08;22.38;;;17.00;;
75061;SDS011;63641;46.526;24.612;2024-03-23T05:43:34;31.85;;;22.35;;
75061;SDS011;63641;46.526;24.612;2024-03-23T05:46:00;23.85;;;18.05;;
75061;SDS011;63641;46.526;24.612;2024-03-23T05:48:33;25.33;;;19.08;;
75061;SDS011;63641;46.526;24.612;2024-03-23T05:50:59;26.48;;;20.48;;
75061;SDS011;63641;46.526;24.612;2024-03-23T05:53:25;29.08;;;19.80;;
75061;SDS011;63641;46.526;24.612;2024-03-23T05:55:51;31.23;;;22.83;;
75061;SDS011;63641;46.526;24.612;2024-03-23T05:58:25;32.20;;;21.58;;
75061;SDS011;63641;46.526;24.612;2024-03-23T06:00:56;33.58;;;20.65;;
75061;SDS011;63641;46.526;24.612;2024-03-23T06:03:24;26.98;;;19.92;;
75061;SDS011;63641;46.526;24.612;2024-03-23T06:05:51;29.73;;;21.48;;
75061;SDS011;63641;46.526;24.612;2024-03-23T06:08:18;29.98;;;21.95;;
75061;SDS011;63641;46.526;24.612;2024-03-23T06:10:45;32.10;;;24.55;;
75061;SDS011;63641;46.526;24.612;2024-03-23T06:13:12;28.58;;;21.15;;
75061;SDS011;63641;46.526;24.612;2024-03-23T06:15:38;32.20;;;20.77;;
75061;SDS011;63641;46.526;24.612;2024-03-23T06:18:04;33.92;;;22.33;;
75061;SDS011;63641;46.526;24.612;2024-03-23T06:20:31;33.08;;;22.50;;
75061;SDS011;63641;46.526;24.612;2024-03-23T06:22:57;28.15;;;19.55;;
75061;SDS011;63641;46.526;24.612;2024-03-23T06:25:23;26.67;;;16.80;;
75061;SDS011;63641;46.526;24.612;2024-03-23T06:27:49;27.20;;;17.60;;
75061;SDS011;63641;46.526;24.612;2024-03-23T06:30:14;24.15;;;18.02;;
75061;SDS011;63641;46.526;24.612;2024-03-23T06:32:41;28.20;;;17.77;;
75061;SDS011;63641;46.526;24.612;2024-03-23T06:35:07;27.65;;;18.10;;
75061;SDS011;63641;46.526;24.612;2024-03-23T06:37:36;24.85;;;17.27;;
75061;SDS011;63641;46.526;24.612;2024-03-23T06:40:02;25.42;;;16.98;;
75061;SDS011;63641;46.526;24.612;2024-03-23T06:42:30;34.70;;;17.77;;
75061;SDS011;63641;46.526;24.612;2024-03-23T06:44:56;25.98;;;18.17;;
75061;SDS011;63641;46.526;24.612;2024-03-23T06:47:21;32.45;;;21.23;;
75061;SDS011;63641;46.526;24.612;2024-03-23T06:49:47;37.67;;;27.25;;
75061;SDS011;63641;46.526;24.612;2024-03-23T06:52:13;32.97;;;25.65;;
75061;SDS011;63641;46.526;24.612;2024-03-23T06:54:39;27.25;;;21.38;;
75061;SDS011;63641;46.526;24.612;2024-03-23T06:57:05;20.85;;;16.13;;
75061;SDS011;63641;46.526;24.612;2024-03-23T06:59:31;19.63;;;15.75;;
75061;SDS011;63641;46.526;24.612;2024-03-23T07:01:56;27.38;;;16.77;;
75061;SDS011;63641;46.526;24.612;2024-03-23T07:04:22;25.60;;;16.33;;
75061;SDS011;63641;46.526;24.612;2024-03-23T07:06:48;22.20;;;15.05;;
75061;SDS011;63641;46.526;24.612;2024-03-23T07:09:14;19.95;;;14.60;;
75061;SDS011;63641;46.526;24.612;2024-03-23T07:11:40;25.63;;;15.02;;
75061;SDS011;63641;46.526;24.612;2024-03-23T07:14:06;21.58;;;14.05;;
75061;SDS011;63641;46.526;24.612;2024-03-23T07:16:32;24.13;;;15.75;;
75061;SDS011;63641;46.526;24.612;2024-03-23T07:18:58;25.75;;;15.68;;
75061;SDS011;63641;46.526;24.612;2024-03-23T07:21:24;21.05;;;15.27;;
75061;SDS011;63641;46.526;24.612;2024-03-23T07:23:50;18.65;;;13.27;;
75061;SDS011;63641;46.526;24.612;2024-03-23T07:26:16;16.58;;;12.52;;
75061;SDS011;63641;46.526;24.612;2024-03-23T07:28:43;16.45;;;12.13;;
75061;SDS011;63641;46.526;24.612;2024-03-23T07:31:10;17.85;;;12.13;;
75061;SDS011;63641;46.526;24.612;2024-03-23T07:33:41;16.75;;;11.35;;
75061;SDS011;63641;46.526;24.612;2024-03-23T07:36:11;17.02;;;12.65;;
75061;SDS011;63641;46.526;24.612;2024-03-23T07:38:37;16.42;;;11.38;;
75061;SDS011;63641;46.526;24.612;2024-03-23T07:41:09;15.68;;;11.68;;
75061;SDS011;63641;46.526;24.612;2024-03-23T07:43:37;16.45;;;10.13;;
75061;SDS011;63641;46.526;24.612;2024-03-23T07:46:03;14.77;;;9.98;;
75061;SDS011;63641;46.526;24.612;2024-03-23T07:48:30;13.20;;;10.30;;
75061;SDS011;63641;46.526;24.612;2024-03-23T07:53:43;13.60;;;9.80;;
75061;SDS011;63641;46.526;24.612;2024-03-23T07:56:10;15.65;;;10.32;;
75061;SDS011;63641;46.526;24.612;2024-03-23T07:58:36;11.90;;;9.18;;
75061;SDS011;63641;46.526;24.612;2024-03-23T08:01:06;15.57;;;9.77;;
75061;SDS011;63641;46.526;24.612;2024-03-23T08:03:33;14.73;;;9.68;;
75061;SDS011;63641;46.526;24.612;2024-03-23T08:06:13;13.50;;;10.32;;
75061;SDS011;63641;46.526;24.612;2024-03-23T08:08:40;15.00;;;11.02;;
75061;SDS011;63641;46.526;24.612;2024-03-23T08:11:09;15.85;;;9.82;;
75061;SDS011;63641;46.526;24.612;2024-03-23T08:13:35;12.55;;;9.93;;
75061;SDS011;63641;46.526;24.612;2024-03-23T08:16:03;18.15;;;10.68;;
75061;SDS011;63641;46.526;24.612;2024-03-23T08:18:30;11.68;;;9.50;;
75061;SDS011;63641;46.526;24.612;2024-03-23T08:21:00;14.25;;;10.25;;
75061;SDS011;63641;46.526;24.612;2024-03-23T08:23:28;14.57;;;11.13;;
75061;SDS011;63641;46.526;24.612;2024-03-23T08:25:58;14.95;;;9.80;;
75061;SDS011;63641;46.526;24.612;2024-03-23T08:28:25;13.23;;;9.57;;
75061;SDS011;63641;46.526;24.612;2024-03-23T08:30:52;11.50;;;8.88;;
75061;SDS011;63641;46.526;24.612;2024-03-23T08:33:18;12.68;;;9.20;;
75061;SDS011;63641;46.526;24.612;2024-03-23T08:35:58;14.63;;;9.35;;
75061;SDS011;63641;46.526;24.612;2024-03-23T08:38:25;13.30;;;9.70;;
75061;SDS011;63641;46.526;24.612;2024-03-23T08:41:04;14.48;;;10.32;;
75061;SDS011;63641;46.526;24.612;2024-03-23T08:43:32;12.73;;;9.82;;
75061;SDS011;63641;46.526;24.612;2024-03-23T08:46:07;12.43;;;10.07;;
75061;SDS011;63641;46.526;24.612;2024-03-23T08:48:34;12.45;;;9.40;;
75061;SDS011;63641;46.526;24.612;2024-03-23T08:51:02;14.90;;;10.05;;
75061;SDS011;63641;46.526;24.612;2024-03-23T08:53:31;11.73;;;8.88;;
75061;SDS011;63641;46.526;24.612;2024-03-23T08:55:58;13.98;;;8.60;;
75061;SDS011;63641;46.526;24.612;2024-03-23T08:58:26;11.63;;;9.10;;
75061;SDS011;63641;46.526;24.612;2024-03-23T09:00:53;12.52;;;9.10;;
75061;SDS011;63641;46.526;24.612;2024-03-23T09:03:24;12.02;;;9.20;;
75061;SDS011;63641;46.526;24.612;2024-03-23T09:05:51;11.93;;;8.95;;
75061;SDS011;63641;46.526;24.612;2024-03-23T09:08:17;10.70;;;8.30;;
75061;SDS011;63641;46.526;24.612;2024-03-23T09:10:44;11.30;;;8.70;;
75061;SDS011;63641;46.526;24.612;2024-03-23T09:13:10;9.32;;;7.82;;
75061;SDS011;63641;46.526;24.612;2024-03-23T09:15:37;11.40;;;8.75;;
75061;SDS011;63641;46.526;24.612;2024-03-23T09:18:10;12.13;;;8.98;;
75061;SDS011;63641;46.526;24.612;2024-03-23T09:20:36;9.93;;;7.68;;
75061;SDS011;63641;46.526;24.612;2024-03-23T09:23:02;8.93;;;7.70;;
75061;SDS011;63641;46.526;24.612;2024-03-23T09:25:28;11.07;;;8.57;;
75061;SDS011;63641;46.526;24.612;2024-03-23T09:27:53;9.30;;;8.23;;
75061;SDS011;63641;46.526;24.612;2024-03-23T09:30:19;11.25;;;8.70;;
75061;SDS011;63641;46.526;24.612;2024-03-23T09:32:45;11.20;;;8.15;;
75061;SDS011;63641;46.526;24.612;2024-03-23T09:35:11;11.23;;;8.45;;
75061;SDS011;63641;46.526;24.612;2024-03-23T09:37:40;10.73;;;8.57;;
75061;SDS011;63641;46.526;24.612;2024-03-23T09:40:09;12.40;;;8.95;;
75061;SDS011;63641;46.526;24.612;2024-03-23T09:42:36;14.40;;;8.57;;
75061;SDS011;63641;46.526;24.612;2024-03-23T09:45:05;13.18;;;8.52;;
75061;SDS011;63641;46.526;24.612;2024-03-23T09:47:32;12.73;;;8.73;;
75061;SDS011;63641;46.526;24.612;2024-03-23T09:49:59;12.88;;;7.82;;
75061;SDS011;63641;46.526;24.612;2024-03-23T09:52:26;12.68;;;7.88;;
75061;SDS011;63641;46.526;24.612;2024-03-23T09:54:51;11.43;;;8.65;;
75061;SDS011;63641;46.526;24.612;2024-03-23T09:57:17;10.73;;;8.60;;
75061;SDS011;63641;46.526;24.612;2024-03-23T09:59:43;11.20;;;8.52;;
75061;SDS011;63641;46.526;24.612;2024-03-23T10:02:09;10.20;;;8.52;;
75061;SDS011;63641;46.526;24.612;2024-03-23T10:04:40;11.60;;;8.30;;
75061;SDS011;63641;46.526;24.612;2024-03-23T10:07:13;10.45;;;7.88;;
75061;SDS011;63641;46.526;24.612;2024-03-23T10:09:46;10.30;;;8.00;;
75061;SDS011;63641;46.526;24.612;2024-03-23T10:12:17;10.55;;;8.70;;
75061;SDS011;63641;46.526;24.612;2024-03-23T10:14:44;10.00;;;8.32;;
75061;SDS011;63641;46.526;24.612;2024-03-23T10:17:20;9.65;;;8.40;;
75061;SDS011;63641;46.526;24.612;2024-03-23T10:19:50;8.88;;;7.78;;
75061;SDS011;63641;46.526;24.612;2024-03-23T10:22:21;10.02;;;8.02;;
75061;SDS011;63641;46.526;24.612;2024-03-23T10:24:49;9.70;;;7.95;;
75061;SDS011;63641;46.526;24.612;2024-03-23T10:27:19;9.88;;;7.70;;
75061;SDS011;63641;46.526;24.612;2024-03-23T10:29:47;10.90;;;7.07;;
75061;SDS011;63641;46.526;24.612;2024-03-23T10:32:14;10.02;;;7.60;;
75061;SDS011;63641;46.526;24.612;2024-03-23T10:34:41;9.43;;;8.07;;
75061;SDS011;63641;46.526;24.612;2024-03-23T10:37:07;13.07;;;8.00;;
75061;SDS011;63641;46.526;24.612;2024-03-23T10:39:37;9.57;;;8.35;;
75061;SDS011;63641;46.526;24.612;2024-03-23T10:42:05;12.32;;;7.57;;
75061;SDS011;63641;46.526;24.612;2024-03-23T10:44:37;9.27;;;7.65;;
75061;SDS011;63641;46.526;24.612;2024-03-23T10:47:04;11.23;;;7.35;;
75061;SDS011;63641;46.526;24.612;2024-03-23T10:49:34;10.10;;;7.90;;
75061;SDS011;63641;46.526;24.612;2024-03-23T10:52:04;12.30;;;8.15;;
75061;SDS011;63641;46.526;24.612;2024-03-23T10:54:31;9.88;;;8.18;;
75061;SDS011;63641;46.526;24.612;2024-03-23T10:59:45;11.10;;;7.88;;
75061;SDS011;63641;46.526;24.612;2024-03-23T11:02:21;9.77;;;7.70;;
75061;SDS011;63641;46.526;24.612;2024-03-23T11:04:47;8.75;;;7.50;;
75061;SDS011;63641;46.526;24.612;2024-03-23T11:07:29;9.68;;;7.53;;
75061;SDS011;63641;46.526;24.612;2024-03-23T11:09:56;10.07;;;7.50;;
75061;SDS011;63641;46.526;24.612;2024-03-23T11:14:51;9.75;;;7.90;;
75061;SDS011;63641;46.526;24.612;2024-03-23T11:17:21;9.63;;;6.82;;
75061;SDS011;63641;46.526;24.612;2024-03-23T11:19:54;8.20;;;6.90;;
75061;SDS011;63641;46.526;24.612;2024-03-23T11:22:43;9.48;;;7.13;;
75061;SDS011;63641;46.526;24.612;2024-03-23T11:27:44;11.70;;;7.72;;
75061;SDS011;63641;46.526;24.612;2024-03-23T11:30:11;9.75;;;7.35;;
75061;SDS011;63641;46.526;24.612;2024-03-23T11:32:44;8.88;;;7.10;;
75061;SDS011;63641;46.526;24.612;2024-03-23T11:35:31;8.57;;;7.03;;
75061;SDS011;63641;46.526;24.612;2024-03-23T11:40:41;9.23;;;6.70;;
75061;SDS011;63641;46.526;24.612;2024-03-23T11:43:09;9.23;;;6.88;;
75061;SDS011;63641;46.526;24.612;2024-03-23T11:45:48;10.32;;;6.63;;
75061;SDS011;63641;46.526;24.612;2024-03-23T11:48:20;9.90;;;7.05;;
75061;SDS011;63641;46.526;24.612;2024-03-23T11:50:48;9.73;;;7.07;;
75061;SDS011;63641;46.526;24.612;2024-03-23T11:53:23;8.48;;;6.68;;
75061;SDS011;63641;46.526;24.612;2024-03-23T11:55:53;8.88;;;7.35;;
75061;SDS011;63641;46.526;24.612;2024-03-23T11:58:23;10.63;;;7.35;;
75061;SDS011;63641;46.526;24.612;2024-03-23T12:00:51;7.88;;;6.53;;
75061;SDS011;63641;46.526;24.612;2024-03-23T12:03:18;8.65;;;6.90;;
75061;SDS011;63641;46.526;24.612;2024-03-23T12:05:47;7.00;;;6.30;;
75061;SDS011;63641;46.526;24.612;2024-03-23T12:10:47;7.75;;;6.65;;
75061;SDS011;63641;46.526;24.612;2024-03-23T12:13:18;7.80;;;7.00;;
75061;SDS011;63641;46.526;24.612;2024-03-23T12:15:49;8.32;;;7.03;;
75061;SDS011;63641;46.526;24.612;2024-03-23T12:18:16;7.85;;;6.93;;
75061;SDS011;63641;46.526;24.612;2024-03-23T12:20:42;8.18;;;6.63;;
75061;SDS011;63641;46.526;24.612;2024-03-23T12:23:09;7.22;;;6.32;;
75061;SDS011;63641;46.526;24.612;2024-03-23T12:25:37;9.68;;;6.90;;
75061;SDS011;63641;46.526;24.612;2024-03-23T12:28:03;7.75;;;6.70;;
75061;SDS011;63641;46.526;24.612;2024-03-23T12:30:32;8.57;;;6.85;;
75061;SDS011;63641;46.526;24.612;2024-03-23T12:33:01;7.30;;;6.03;;
75061;SDS011;63641;46.526;24.612;2024-03-23T12:35:28;8.18;;;6.47;;
75061;SDS011;63641;46.526;24.612;2024-03-23T12:37:54;8.18;;;6.22;;
75061;SDS011;63641;46.526;24.612;2024-03-23T12:40:20;9.18;;;7.07;;
75061;SDS011;63641;46.526;24.612;2024-03-23T12:42:46;7.13;;;6.35;;
75061;SDS011;63641;46.526;24.612;2024-03-23T12:45:12;8.27;;;7.40;;
75061;SDS011;63641;46.526;24.612;2024-03-23T12:47:37;9.85;;;7.13;;
75061;SDS011;63641;46.526;24.612;2024-03-23T12:50:03;7.90;;;7.18;;
75061;SDS011;63641;46.526;24.612;2024-03-23T12:52:31;9.10;;;7.30;;
75061;SDS011;63641;46.526;24.612;2024-03-23T12:55:01;7.32;;;6.55;;
75061;SDS011;63641;46.526;24.612;2024-03-23T12:57:28;6.95;;;6.22;;
75061;SDS011;63641;46.526;24.612;2024-03-23T12:59:54;8.63;;;7.13;;
75061;SDS011;63641;46.526;24.612;2024-03-23T13:02:20;8.40;;;6.43;;
75061;SDS011;63641;46.526;24.612;2024-03-23T13:04:49;7.05;;;6.35;;
75061;SDS011;63641;46.526;24.612;2024-03-23T13:07:17;7.72;;;6.32;;
75061;SDS011;63641;46.526;24.612;2024-03-23T13:09:43;8.48;;;6.93;;
75061;SDS011;63641;46.526;24.612;2024-03-23T13:12:10;7.63;;;6.32;;
75061;SDS011;63641;46.526;24.612;2024-03-23T13:14:37;8.32;;;6.82;;
75061;SDS011;63641;46.526;24.612;2024-03-23T13:17:04;7.97;;;6.78;;
75061;SDS011;63641;46.526;24.612;2024-03-23T13:19:31;7.38;;;6.45;;
75061;SDS011;63641;46.526;24.612;2024-03-23T13:21:58;11.23;;;6.78;;
75061;SDS011;63641;46.526;24.612;2024-03-23T13:24:25;8.43;;;6.97;;
75061;SDS011;63641;46.526;24.612;2024-03-23T13:26:52;7.30;;;6.50;;
75061;SDS011;63641;46.526;24.612;2024-03-23T13:29:19;8.10;;;6.07;;
75061;SDS011;63641;46.526;24.612;2024-03-23T13:31:48;8.75;;;6.88;;
75061;SDS011;63641;46.526;24.612;2024-03-23T13:34:15;7.95;;;7.15;;
75061;SDS011;63641;46.526;24.612;2024-03-23T13:36:46;8.60;;;6.55;;
75061;SDS011;63641;46.526;24.612;2024-03-23T13:39:13;8.73;;;6.78;;
75061;SDS011;63641;46.526;24.612;2024-03-23T13:41:40;7.57;;;6.60;;
75061;SDS011;63641;46.526;24.612;2024-03-23T13:44:11;6.88;;;6.18;;
75061;SDS011;63641;46.526;24.612;2024-03-23T13:46:38;7.40;;;6.63;;
75061;SDS011;63641;46.526;24.612;2024-03-23T13:49:05;9.20;;;6.50;;
75061;SDS011;63641;46.526;24.612;2024-03-23T13:51:32;7.47;;;6.03;;
75061;SDS011;63641;46.526;24.612;2024-03-23T13:53:58;8.88;;;6.78;;
75061;SDS011;63641;46.526;24.612;2024-03-23T13:56:27;8.48;;;6.57;;
75061;SDS011;63641;46.526;24.612;2024-03-23T13:58:57;8.35;;;7.07;;
75061;SDS011;63641;46.526;24.612;2024-03-23T14:01:23;9.60;;;7.90;;
75061;SDS011;63641;46.526;24.612;2024-03-23T14:03:49;9.07;;;7.35;;
75061;SDS011;63641;46.526;24.612;2024-03-23T14:06:15;10.10;;;7.90;;
75061;SDS011;63641;46.526;24.612;2024-03-23T14:08:41;9.02;;;7.03;;
75061;SDS011;63641;46.526;24.612;2024-03-23T14:11:08;7.78;;;6.97;;
75061;SDS011;63641;46.526;24.612;2024-03-23T14:13:36;8.77;;;7.35;;
75061;SDS011;63641;46.526;24.612;2024-03-23T14:16:02;8.43;;;7.53;;
75061;SDS011;63641;46.526;24.612;2024-03-23T14:18:28;8.15;;;6.78;;
75061;SDS011;63641;46.526;24.612;2024-03-23T14:20:58;8.07;;;7.20;;
75061;SDS011;63641;46.526;24.612;2024-03-23T14:23:28;7.60;;;6.72;;
75061;SDS011;63641;46.526;24.612;2024-03-23T14:25:58;8.70;;;6.90;;
75061;SDS011;63641;46.526;24.612;2024-03-23T14:28:24;9.70;;;7.38;;
75061;SDS011;63641;46.526;24.612;2024-03-23T14:30:50;9.68;;;6.65;;
75061;SDS011;63641;46.526;24.612;2024-03-23T14:33:17;11.40;;;7.18;;
75061;SDS011;63641;46.526;24.612;2024-03-23T14:35:51;8.73;;;7.60;;
75061;SDS011;63641;46.526;24.612;2024-03-23T14:38:23;8.93;;;8.02;;
75061;SDS011;63641;46.526;24.612;2024-03-23T14:40:49;9.93;;;8.48;;
75061;SDS011;63641;46.526;24.612;2024-03-23T14:43:16;11.32;;;8.10;;
75061;SDS011;63641;46.526;24.612;2024-03-23T14:48:38;12.27;;;9.70;;
75061;SDS011;63641;46.526;24.612;2024-03-23T14:51:05;13.50;;;9.85;;
75061;SDS011;63641;46.526;24.612;2024-03-23T14:53:32;12.85;;;9.20;;
75061;SDS011;63641;46.526;24.612;2024-03-23T14:56:01;11.70;;;9.55;;
75061;SDS011;63641;46.526;24.612;2024-03-23T14:58:28;10.43;;;9.32;;
75061;SDS011;63641;46.526;24.612;2024-03-23T15:01:04;10.93;;;9.30;;
75061;SDS011;63641;46.526;24.612;2024-03-23T15:03:34;10.23;;;9.23;;
75061;SDS011;63641;46.526;24.612;2024-03-23T15:06:01;10.32;;;9.15;;
75061;SDS011;63641;46.526;24.612;2024-03-23T15:08:27;10.27;;;9.25;;
75061;SDS011;63641;46.526;24.612;2024-03-23T15:10:53;10.02;;;8.57;;
75061;SDS011;63641;46.526;24.612;2024-03-23T15:13:19;11.10;;;8.60;;
75061;SDS011;63641;46.526;24.612;2024-03-23T15:15:48;9.15;;;8.00;;
75061;SDS011;63641;46.526;24.612;2024-03-23T15:18:14;13.52;;;8.40;;
75061;SDS011;63641;46.526;24.612;2024-03-23T15:20:41;14.98;;;13.18;;
75061;SDS011;63641;46.526;24.612;2024-03-23T15:23:07;15.23;;;12.63;;
75061;SDS011;63641;46.526;24.612;2024-03-23T15:25:33;14.77;;;12.32;;
75061;SDS011;63641;46.526;24.612;2024-03-23T15:27:59;19.35;;;16.10;;
75061;SDS011;63641;46.526;24.612;2024-03-23T15:30:26;12.25;;;10.57;;